Brixton, United Kingdom
Current Conditions -  °F | °C
As of 12:20 PM on Thursday 18 Dec 2014 (Local Time) from EGLC Reporting Station
Broken Clouds Broken Clouds  
Wind Chill: 57°   Ceiling: 1200
Heat Index: 57°   Visibility: 6mi
Dew Point: 52°   Wind: 18mph
Humidity: 82%   Direction: 240°WSW
Pressure: 29.8"   Gusts: NA
Location:  51.47°N, 0.11°W
Report Text: EGLC 181220Z 24016KT 9999 FEW009 BKN012 14/11 Q1009
Loading
Personal Weather Stations






























Interactive Weather Map New forecast layout! Learn more

10-Day Weather Forecast

Advertisements
Track Severe Weather on mobile